sensor_id;sensor_type;location;lat;lon;timestamp;pressure;altitude;pressure_sealevel;temperature;humidity
75668;BME280;64266;48.798;44.756;2022-12-11T00:01:33;102583.56;;;1.79;57.27
75668;BME280;64266;48.798;44.756;2022-12-11T00:03:59;102561.41;;;1.60;57.46
75668;BME280;64266;48.798;44.756;2022-12-11T00:06:25;102581.50;;;1.60;57.99
75668;BME280;64266;48.798;44.756;2022-12-11T00:08:53;102588.78;;;1.79;57.76
75668;BME280;64266;48.798;44.756;2022-12-11T00:11:20;102585.22;;;1.69;57.70
75668;BME280;64266;48.798;44.756;2022-12-11T00:13:46;102572.63;;;1.62;57.26
75668;BME280;64266;48.798;44.756;2022-12-11T00:16:13;102587.00;;;1.68;56.78
75668;BME280;64266;48.798;44.756;2022-12-11T00:18:39;102595.69;;;1.69;56.84
75668;BME280;64266;48.798;44.756;2022-12-11T00:21:06;102585.53;;;1.53;56.93
75668;BME280;64266;48.798;44.756;2022-12-11T00:23:34;102577.41;;;1.45;57.97
75668;BME280;64266;48.798;44.756;2022-12-11T00:26:04;102580.84;;;1.45;57.71
75668;BME280;64266;48.798;44.756;2022-12-11T00:28:32;102577.69;;;1.53;56.96
75668;BME280;64266;48.798;44.756;2022-12-11T00:30:57;102562.25;;;1.50;57.18
75668;BME280;64266;48.798;44.756;2022-12-11T00:33:25;102573.44;;;1.63;57.10
75668;BME280;64266;48.798;44.756;2022-12-11T00:35:52;102574.16;;;1.65;56.93
75668;BME280;64266;48.798;44.756;2022-12-11T00:38:20;102536.66;;;1.42;56.63
75668;BME280;64266;48.798;44.756;2022-12-11T00:40:47;102570.47;;;1.68;55.96
75668;BME280;64266;48.798;44.756;2022-12-11T00:43:13;102522.03;;;1.40;56.88
75668;BME280;64266;48.798;44.756;2022-12-11T00:45:41;102559.03;;;1.57;56.37
75668;BME280;64266;48.798;44.756;2022-12-11T00:48:08;102565.47;;;1.64;56.54
75668;BME280;64266;48.798;44.756;2022-12-11T00:50:35;102540.03;;;1.55;56.60
75668;BME280;64266;48.798;44.756;2022-12-11T00:53:02;102557.03;;;1.61;56.80
75668;BME280;64266;48.798;44.756;2022-12-11T00:55:29;102552.41;;;1.76;56.03
75668;BME280;64266;48.798;44.756;2022-12-11T00:57:55;102452.34;;;1.05;56.67
75668;BME280;64266;48.798;44.756;2022-12-11T01:00:23;102562.16;;;1.62;57.27
75668;BME280;64266;48.798;44.756;2022-12-11T01:02:49;102536.09;;;1.50;56.63
75668;BME280;64266;48.798;44.756;2022-12-11T01:05:16;102489.47;;;1.33;56.74
75668;BME280;64266;48.798;44.756;2022-12-11T01:07:42;102524.56;;;1.52;57.57
75668;BME280;64266;48.798;44.756;2022-12-11T01:10:11;102532.06;;;1.57;57.22
75668;BME280;64266;48.798;44.756;2022-12-11T01:12:53;102543.38;;;1.69;56.17
75668;BME280;64266;48.798;44.756;2022-12-11T01:15:21;102511.72;;;1.38;56.87
75668;BME280;64266;48.798;44.756;2022-12-11T01:17:48;102531.25;;;1.56;56.78
75668;BME280;64266;48.798;44.756;2022-12-11T01:20:15;102532.09;;;1.68;55.99
75668;BME280;64266;48.798;44.756;2022-12-11T01:22:41;102497.97;;;1.47;55.66
75668;BME280;64266;48.798;44.756;2022-12-11T01:25:07;102524.97;;;1.70;56.48
75668;BME280;64266;48.798;44.756;2022-12-11T01:27:35;102515.22;;;1.72;55.83
75668;BME280;64266;48.798;44.756;2022-12-11T01:30:03;102502.50;;;1.68;56.47
75668;BME280;64266;48.798;44.756;2022-12-11T01:32:29;102469.66;;;1.41;55.24
75668;BME280;64266;48.798;44.756;2022-12-11T01:34:55;102502.34;;;1.58;55.35
75668;BME280;64266;48.798;44.756;2022-12-11T01:37:21;102500.91;;;1.54;55.71
75668;BME280;64266;48.798;44.756;2022-12-11T01:39:47;102513.50;;;1.49;56.43
75668;BME280;64266;48.798;44.756;2022-12-11T01:42:19;102523.16;;;1.59;55.37
75668;BME280;64266;48.798;44.756;2022-12-11T01:47:11;102488.13;;;1.62;55.17
75668;BME280;64266;48.798;44.756;2022-12-11T01:49:38;102515.09;;;1.62;55.50
75668;BME280;64266;48.798;44.756;2022-12-11T01:52:08;102514.25;;;1.62;55.08
75668;BME280;64266;48.798;44.756;2022-12-11T01:54:35;102483.44;;;1.43;55.21
75668;BME280;64266;48.798;44.756;2022-12-11T01:57:04;102519.50;;;1.73;55.77
75668;BME280;64266;48.798;44.756;2022-12-11T01:59:34;102515.00;;;1.75;54.27
75668;BME280;64266;48.798;44.756;2022-12-11T02:02:13;102509.53;;;1.78;54.56
75668;BME280;64266;48.798;44.756;2022-12-11T02:04:40;102495.13;;;1.73;55.00
75668;BME280;64266;48.798;44.756;2022-12-11T02:07:08;102502.63;;;1.66;54.70
75668;BME280;64266;48.798;44.756;2022-12-11T02:09:36;102510.09;;;1.59;54.46
75668;BME280;64266;48.798;44.756;2022-12-11T02:15:23;102520.19;;;1.53;55.36
75668;BME280;64266;48.798;44.756;2022-12-11T02:25:47;102518.97;;;1.46;54.45
75668;BME280;64266;48.798;44.756;2022-12-11T02:30:42;102468.22;;;1.02;55.58
75668;BME280;64266;48.798;44.756;2022-12-11T02:33:12;102532.84;;;1.35;55.21
75668;BME280;64266;48.798;44.756;2022-12-11T02:35:41;102495.84;;;1.18;54.60
75668;BME280;64266;48.798;44.756;2022-12-11T02:38:12;102470.28;;;1.10;55.41
75668;BME280;64266;48.798;44.756;2022-12-11T02:40:41;102531.66;;;1.39;54.97
75668;BME280;64266;48.798;44.756;2022-12-11T02:43:10;102536.69;;;1.53;54.48
75668;BME280;64266;48.798;44.756;2022-12-11T02:45:39;102543.47;;;1.56;54.22
75668;BME280;64266;48.798;44.756;2022-12-11T02:48:08;102548.34;;;1.60;54.96
75668;BME280;64266;48.798;44.756;2022-12-11T02:50:38;102543.13;;;1.60;54.48
75668;BME280;64266;48.798;44.756;2022-12-11T02:53:07;102530.88;;;1.61;54.15
75668;BME280;64266;48.798;44.756;2022-12-11T02:55:35;102535.88;;;1.64;54.08
75668;BME280;64266;48.798;44.756;2022-12-11T02:58:04;102559.00;;;1.92;53.94
75668;BME280;64266;48.798;44.756;2022-12-11T03:00:33;102555.34;;;2.06;54.61
75668;BME280;64266;48.798;44.756;2022-12-11T03:02:59;102542.50;;;2.03;53.40
75668;BME280;64266;48.798;44.756;2022-12-11T03:05:25;102558.88;;;2.16;53.13
75668;BME280;64266;48.798;44.756;2022-12-11T03:07:52;102523.69;;;1.87;53.78
75668;BME280;64266;48.798;44.756;2022-12-11T03:10:18;102566.97;;;2.02;53.83
75668;BME280;64266;48.798;44.756;2022-12-11T03:12:49;102550.44;;;1.90;53.41
75668;BME280;64266;48.798;44.756;2022-12-11T03:15:19;102563.28;;;2.04;54.88
75668;BME280;64266;48.798;44.756;2022-12-11T03:17:59;102560.19;;;1.99;54.48
75668;BME280;64266;48.798;44.756;2022-12-11T03:20:40;102556.38;;;2.03;54.20
75668;BME280;64266;48.798;44.756;2022-12-11T03:23:22;102492.75;;;1.70;53.54
75668;BME280;64266;48.798;44.756;2022-12-11T03:25:54;102536.41;;;2.02;54.34
75668;BME280;64266;48.798;44.756;2022-12-11T03:28:29;102530.81;;;2.07;53.89
75668;BME280;64266;48.798;44.756;2022-12-11T03:31:01;102533.44;;;2.07;54.61
75668;BME280;64266;48.798;44.756;2022-12-11T03:33:33;102495.81;;;1.63;55.20
75668;BME280;64266;48.798;44.756;2022-12-11T03:36:05;102521.28;;;1.73;54.60
75668;BME280;64266;48.798;44.756;2022-12-11T03:39:12;102515.09;;;1.62;55.63
75668;BME280;64266;48.798;44.756;2022-12-11T03:41:43;102508.66;;;1.44;55.96
75668;BME280;64266;48.798;44.756;2022-12-11T03:44:10;102534.94;;;1.65;56.30
75668;BME280;64266;48.798;44.756;2022-12-11T03:46:38;102543.03;;;1.73;56.13
75668;BME280;64266;48.798;44.756;2022-12-11T03:49:08;102544.81;;;1.73;56.01
75668;BME280;64266;48.798;44.756;2022-12-11T03:51:36;102532.31;;;1.65;56.53
75668;BME280;64266;48.798;44.756;2022-12-11T03:54:02;102469.31;;;1.11;57.22
75668;BME280;64266;48.798;44.756;2022-12-11T03:56:30;102527.66;;;1.57;56.89
75668;BME280;64266;48.798;44.756;2022-12-11T03:58:58;102524.81;;;1.49;57.05
75668;BME280;64266;48.798;44.756;2022-12-11T04:01:26;102499.97;;;1.44;57.76
75668;BME280;64266;48.798;44.756;2022-12-11T04:03:51;102543.25;;;1.70;57.45
75668;BME280;64266;48.798;44.756;2022-12-11T04:06:18;102497.81;;;1.49;57.59
75668;BME280;64266;48.798;44.756;2022-12-11T04:08:44;102438.94;;;1.10;57.31
75668;BME280;64266;48.798;44.756;2022-12-11T04:11:10;102521.50;;;1.58;57.26
75668;BME280;64266;48.798;44.756;2022-12-11T04:13:55;102503.06;;;1.49;57.68
75668;BME280;64266;48.798;44.756;2022-12-11T04:16:39;102504.13;;;1.46;57.94
75668;BME280;64266;48.798;44.756;2022-12-11T04:19:05;102511.88;;;1.70;57.58
75668;BME280;64266;48.798;44.756;2022-12-11T04:21:49;102469.31;;;1.57;57.31
75668;BME280;64266;48.798;44.756;2022-12-11T04:24:34;102513.94;;;1.78;56.81
75668;BME280;64266;48.798;44.756;2022-12-11T04:26:59;102515.59;;;1.90;56.64
75668;BME280;64266;48.798;44.756;2022-12-11T04:29:26;102525.09;;;1.91;57.04
75668;BME280;64266;48.798;44.756;2022-12-11T04:31:52;102506.56;;;1.83;57.14
75668;BME280;64266;48.798;44.756;2022-12-11T04:34:17;102512.00;;;1.91;57.69
75668;BME280;64266;48.798;44.756;2022-12-11T04:36:43;102469.69;;;1.75;57.23
75668;BME280;64266;48.798;44.756;2022-12-11T04:39:09;102471.84;;;1.81;57.19
75668;BME280;64266;48.798;44.756;2022-12-11T04:41:35;102482.91;;;1.95;57.40
75668;BME280;64266;48.798;44.756;2022-12-11T04:44:02;102480.28;;;1.95;57.83
75668;BME280;64266;48.798;44.756;2022-12-11T04:46:28;102475.31;;;1.81;57.82
75668;BME280;64266;48.798;44.756;2022-12-11T04:48:54;102515.25;;;2.05;58.42
75668;BME280;64266;48.798;44.756;2022-12-11T04:51:20;102491.00;;;1.92;57.50
75668;BME280;64266;48.798;44.756;2022-12-11T04:53:46;102513.25;;;2.09;58.65
75668;BME280;64266;48.798;44.756;2022-12-11T04:56:13;102498.03;;;2.03;56.93
75668;BME280;64266;48.798;44.756;2022-12-11T04:58:41;102526.53;;;2.17;57.71
75668;BME280;64266;48.798;44.756;2022-12-11T05:01:14;102526.41;;;2.07;58.41
75668;BME280;64266;48.798;44.756;2022-12-11T05:03:41;102477.91;;;1.81;58.47
75668;BME280;64266;48.798;44.756;2022-12-11T05:06:08;102509.75;;;1.97;58.14
75668;BME280;64266;48.798;44.756;2022-12-11T05:08:37;102509.91;;;1.96;58.48
75668;BME280;64266;48.798;44.756;2022-12-11T05:11:06;102498.72;;;1.94;58.28
75668;BME280;64266;48.798;44.756;2022-12-11T05:13:33;102479.91;;;1.89;58.25
75668;BME280;64266;48.798;44.756;2022-12-11T05:15:59;102472.44;;;1.84;58.20
75668;BME280;64266;48.798;44.756;2022-12-11T05:18:25;102489.22;;;1.93;58.95
75668;BME280;64266;48.798;44.756;2022-12-11T05:20:55;102526.06;;;2.01;58.92
75668;BME280;64266;48.798;44.756;2022-12-11T05:23:23;102489.78;;;1.74;59.08
75668;BME280;64266;48.798;44.756;2022-12-11T05:25:56;102505.50;;;1.96;59.13
75668;BME280;64266;48.798;44.756;2022-12-11T05:28:24;102495.16;;;1.95;59.41
75668;BME280;64266;48.798;44.756;2022-12-11T05:30:59;102508.47;;;2.14;59.08
75668;BME280;64266;48.798;44.756;2022-12-11T05:33:26;102526.66;;;2.27;59.70
75668;BME280;64266;48.798;44.756;2022-12-11T05:35:52;102518.22;;;2.23;59.02
75668;BME280;64266;48.798;44.756;2022-12-11T05:38:19;102491.34;;;2.10;59.97
75668;BME280;64266;48.798;44.756;2022-12-11T05:41:01;102472.44;;;1.95;60.18
75668;BME280;64266;48.798;44.756;2022-12-11T05:43:31;102533.34;;;2.31;59.76
75668;BME280;64266;48.798;44.756;2022-12-11T05:46:23;102515.56;;;2.34;59.37
75668;BME280;64266;48.798;44.756;2022-12-11T05:48:52;102496.22;;;2.37;59.52
75668;BME280;64266;48.798;44.756;2022-12-11T05:51:19;102518.91;;;2.47;59.67
75668;BME280;64266;48.798;44.756;2022-12-11T05:53:48;102522.34;;;2.48;60.00
75668;BME280;64266;48.798;44.756;2022-12-11T05:56:27;102500.34;;;2.28;60.82
75668;BME280;64266;48.798;44.756;2022-12-11T05:58:54;102522.94;;;2.51;60.67
75668;BME280;64266;48.798;44.756;2022-12-11T06:01:30;102523.53;;;2.55;59.77
75668;BME280;64266;48.798;44.756;2022-12-11T06:03:56;102440.69;;;2.11;60.22
75668;BME280;64266;48.798;44.756;2022-12-11T06:06:24;102531.50;;;2.64;60.31
75668;BME280;64266;48.798;44.756;2022-12-11T06:08:50;102455.50;;;2.22;60.47
75668;BME280;64266;48.798;44.756;2022-12-11T06:11:16;102524.81;;;2.71;60.24
75668;BME280;64266;48.798;44.756;2022-12-11T06:13:43;102496.88;;;2.61;60.80
75668;BME280;64266;48.798;44.756;2022-12-11T06:16:09;102513.16;;;2.64;60.83
75668;BME280;64266;48.798;44.756;2022-12-11T06:18:40;102520.75;;;2.79;60.56
75668;BME280;64266;48.798;44.756;2022-12-11T06:21:13;102529.78;;;2.86;61.02
75668;BME280;64266;48.798;44.756;2022-12-11T06:23:40;102530.34;;;2.89;61.08
75668;BME280;64266;48.798;44.756;2022-12-11T06:26:07;102514.56;;;2.80;61.79
75668;BME280;64266;48.798;44.756;2022-12-11T06:28:33;102502.84;;;2.95;60.69
75668;BME280;64266;48.798;44.756;2022-12-11T06:31:00;102537.97;;;3.24;61.11
75668;BME280;64266;48.798;44.756;2022-12-11T06:33:26;102525.34;;;3.18;60.80
75668;BME280;64266;48.798;44.756;2022-12-11T06:35:52;102531.00;;;3.13;60.72
75668;BME280;64266;48.798;44.756;2022-12-11T06:38:18;102529.06;;;3.15;60.34
75668;BME280;64266;48.798;44.756;2022-12-11T06:40:44;102534.25;;;3.26;60.77
75668;BME280;64266;48.798;44.756;2022-12-11T06:43:11;102527.53;;;3.13;61.21
75668;BME280;64266;48.798;44.756;2022-12-11T06:45:36;102548.66;;;3.32;61.29
75668;BME280;64266;48.798;44.756;2022-12-11T06:48:03;102524.84;;;3.24;61.28
75668;BME280;64266;48.798;44.756;2022-12-11T06:50:28;102532.44;;;3.38;61.38
75668;BME280;64266;48.798;44.756;2022-12-11T06:52:55;102541.56;;;3.44;60.95
75668;BME280;64266;48.798;44.756;2022-12-11T06:55:22;102515.72;;;3.39;61.05
75668;BME280;64266;48.798;44.756;2022-12-11T06:57:47;102493.03;;;3.28;61.26
75668;BME280;64266;48.798;44.756;2022-12-11T07:00:14;102534.97;;;3.70;60.98
75668;BME280;64266;48.798;44.756;2022-12-11T07:02:40;102542.38;;;3.86;60.04
75668;BME280;64266;48.798;44.756;2022-12-11T07:05:06;102541.59;;;3.95;60.56
75668;BME280;64266;48.798;44.756;2022-12-11T07:07:33;102527.75;;;3.83;60.54
75668;BME280;64266;48.798;44.756;2022-12-11T07:09:59;102504.44;;;3.90;60.31
75668;BME280;64266;48.798;44.756;2022-12-11T07:12:24;102496.63;;;3.78;59.94
75668;BME280;64266;48.798;44.756;2022-12-11T07:14:50;102514.97;;;3.99;60.47
75668;BME280;64266;48.798;44.756;2022-12-11T07:17:16;102549.84;;;4.11;59.82
75668;BME280;64266;48.798;44.756;2022-12-11T07:19:42;102545.84;;;4.16;59.74
75668;BME280;64266;48.798;44.756;2022-12-11T07:22:07;102557.63;;;4.22;59.52
75668;BME280;64266;48.798;44.756;2022-12-11T07:24:34;102537.63;;;4.00;60.17
75668;BME280;64266;48.798;44.756;2022-12-11T07:27:00;102552.19;;;4.14;61.09
75668;BME280;64266;48.798;44.756;2022-12-11T07:29:26;102522.28;;;3.96;60.32
75668;BME280;64266;48.798;44.756;2022-12-11T07:31:52;102543.19;;;4.07;60.93
75668;BME280;64266;48.798;44.756;2022-12-11T07:34:18;102514.97;;;3.99;60.94
75668;BME280;64266;48.798;44.756;2022-12-11T07:36:44;102538.72;;;4.28;60.79
75668;BME280;64266;48.798;44.756;2022-12-11T07:39:11;102514.50;;;4.15;59.86
75668;BME280;64266;48.798;44.756;2022-12-11T07:41:38;102525.53;;;4.18;60.12
75668;BME280;64266;48.798;44.756;2022-12-11T07:44:09;102527.41;;;4.27;60.29
75668;BME280;64266;48.798;44.756;2022-12-11T07:46:37;102539.16;;;4.33;59.85
75668;BME280;64266;48.798;44.756;2022-12-11T07:49:04;102558.75;;;4.29;60.59
75668;BME280;64266;48.798;44.756;2022-12-11T07:51:33;102553.34;;;4.21;61.43
75668;BME280;64266;48.798;44.756;2022-12-11T07:54:20;102548.94;;;4.21;61.19
75668;BME280;64266;48.798;44.756;2022-12-11T07:56:46;102544.50;;;4.22;61.01
75668;BME280;64266;48.798;44.756;2022-12-11T07:59:14;102562.75;;;4.23;60.99
75668;BME280;64266;48.798;44.756;2022-12-11T08:01:41;102544.63;;;4.20;60.96
75668;BME280;64266;48.798;44.756;2022-12-11T08:04:09;102538.72;;;4.28;60.77
75668;BME280;64266;48.798;44.756;2022-12-11T08:06:37;102527.41;;;4.37;60.48
75668;BME280;64266;48.798;44.756;2022-12-11T08:09:05;102519.38;;;4.29;60.35
75668;BME280;64266;48.798;44.756;2022-12-11T08:11:33;102518.16;;;4.33;61.35
75668;BME280;64266;48.798;44.756;2022-12-11T08:13:59;102526.19;;;4.41;60.44
75668;BME280;64266;48.798;44.756;2022-12-11T08:16:25;102520.06;;;4.31;61.11
75668;BME280;64266;48.798;44.756;2022-12-11T08:18:51;102546.34;;;4.41;59.80
75668;BME280;64266;48.798;44.756;2022-12-11T08:21:20;102546.09;;;4.44;59.97
75668;BME280;64266;48.798;44.756;2022-12-11T08:23:47;102536.41;;;4.44;59.98
75668;BME280;64266;48.798;44.756;2022-12-11T08:26:16;102536.88;;;4.19;61.40
75668;BME280;64266;48.798;44.756;2022-12-11T08:28:42;102538.91;;;4.36;60.63
75668;BME280;64266;48.798;44.756;2022-12-11T08:31:10;102525.56;;;4.28;60.86
75668;BME280;64266;48.798;44.756;2022-12-11T08:33:37;102531.28;;;4.33;61.46
75668;BME280;64266;48.798;44.756;2022-12-11T08:36:09;102479.06;;;4.09;60.88
75668;BME280;64266;48.798;44.756;2022-12-11T08:38:37;102480.59;;;4.02;61.75
75668;BME280;64266;48.798;44.756;2022-12-11T08:41:13;102520.78;;;4.33;61.25
75668;BME280;64266;48.798;44.756;2022-12-11T08:43:41;102518.56;;;4.38;60.90
75668;BME280;64266;48.798;44.756;2022-12-11T08:46:07;102509.47;;;4.42;61.63
75668;BME280;64266;48.798;44.756;2022-12-11T08:48:35;102466.13;;;4.17;60.84
75668;BME280;64266;48.798;44.756;2022-12-11T08:51:02;102500.34;;;4.46;61.27
75668;BME280;64266;48.798;44.756;2022-12-11T08:53:29;102459.06;;;4.08;60.85
75668;BME280;64266;48.798;44.756;2022-12-11T08:56:05;102503.66;;;4.38;60.72
75668;BME280;64266;48.798;44.756;2022-12-11T08:58:32;102494.41;;;4.44;61.43
75668;BME280;64266;48.798;44.756;2022-12-11T09:00:58;102470.88;;;4.33;60.15
75668;BME280;64266;48.798;44.756;2022-12-11T09:03:24;102409.28;;;3.88;60.45
75668;BME280;64266;48.798;44.756;2022-12-11T09:06:14;102422.78;;;3.83;60.63
75668;BME280;64266;48.798;44.756;2022-12-11T09:08:45;102501.63;;;4.52;60.94
75668;BME280;64266;48.798;44.756;2022-12-11T09:11:14;102490.41;;;4.50;60.92
75668;BME280;64266;48.798;44.756;2022-12-11T09:13:41;102461.06;;;4.35;60.24
75668;BME280;64266;48.798;44.756;2022-12-11T09:16:10;102498.47;;;4.67;60.13
75668;BME280;64266;48.798;44.756;2022-12-11T09:18:37;102447.25;;;4.33;60.38
75668;BME280;64266;48.798;44.756;2022-12-11T09:21:11;102498.59;;;4.75;60.34
75668;BME280;64266;48.798;44.756;2022-12-11T09:23:42;102488.94;;;4.85;60.16
75668;BME280;64266;48.798;44.756;2022-12-11T09:26:11;102446.75;;;4.58;59.90
75668;BME280;64266;48.798;44.756;2022-12-11T09:28:40;102474.94;;;4.75;59.81
75668;BME280;64266;48.798;44.756;2022-12-11T09:31:17;102493.50;;;4.93;59.73
75668;BME280;64266;48.798;44.756;2022-12-11T09:33:44;102498.91;;;4.91;59.59
75668;BME280;64266;48.798;44.756;2022-12-11T09:36:10;102489.75;;;4.96;60.51
75668;BME280;64266;48.798;44.756;2022-12-11T09:38:36;102501.81;;;4.98;59.83
75668;BME280;64266;48.798;44.756;2022-12-11T09:46:44;102492.81;;;5.20;59.56
75668;BME280;64266;48.798;44.756;2022-12-11T09:49:21;102461.66;;;5.06;59.04
75668;BME280;64266;48.798;44.756;2022-12-11T09:54:21;102473.13;;;5.24;59.20
75668;BME280;64266;48.798;44.756;2022-12-11T09:56:58;102481.88;;;5.24;58.82
75668;BME280;64266;48.798;44.756;2022-12-11T10:10:22;102437.34;;;4.94;59.10
75668;BME280;64266;48.798;44.756;2022-12-11T10:16:00;102471.72;;;5.48;58.28
75668;BME280;64266;48.798;44.756;2022-12-11T10:18:30;102459.78;;;5.54;59.06
75668;BME280;64266;48.798;44.756;2022-12-11T10:21:00;102461.06;;;5.50;58.04
75668;BME280;64266;48.798;44.756;2022-12-11T10:23:39;102475.22;;;5.76;57.47
75668;BME280;64266;48.798;44.756;2022-12-11T10:26:21;102490.94;;;5.68;57.72
75668;BME280;64266;48.798;44.756;2022-12-11T10:28:47;102481.06;;;5.70;57.72
75668;BME280;64266;48.798;44.756;2022-12-11T10:31:29;102472.31;;;5.79;57.49
75668;BME280;64266;48.798;44.756;2022-12-11T10:34:11;102444.16;;;5.53;57.56
75668;BME280;64266;48.798;44.756;2022-12-11T10:36:40;102449.84;;;5.38;57.95
75668;BME280;64266;48.798;44.756;2022-12-11T10:39:32;102501.16;;;5.71;57.73
75668;BME280;64266;48.798;44.756;2022-12-11T10:41:58;102488.28;;;5.78;58.95
75668;BME280;64266;48.798;44.756;2022-12-11T10:44:33;102500.31;;;5.80;57.48
75668;BME280;64266;48.798;44.756;2022-12-11T10:47:22;102388.72;;;5.17;57.39
75668;BME280;64266;48.798;44.756;2022-12-11T10:49:56;102463.63;;;5.69;58.23
75668;BME280;64266;48.798;44.756;2022-12-11T10:52:28;102484.63;;;5.79;57.30
75668;BME280;64266;48.798;44.756;2022-12-11T10:57:45;102480.41;;;5.68;57.81
75668;BME280;64266;48.798;44.756;2022-12-11T11:00:29;102476.25;;;5.66;58.22
75668;BME280;64266;48.798;44.756;2022-12-11T11:02:59;102461.56;;;5.63;58.22
75668;BME280;64266;48.798;44.756;2022-12-11T11:05:29;102477.28;;;5.82;57.41
75668;BME280;64266;48.798;44.756;2022-12-11T11:10:58;102468.16;;;5.77;57.94
75668;BME280;64266;48.798;44.756;2022-12-11T11:13:27;102467.63;;;5.73;57.67
75668;BME280;64266;48.798;44.756;2022-12-11T11:16:07;102440.31;;;5.47;58.38
75668;BME280;64266;48.798;44.756;2022-12-11T11:18:35;102424.94;;;5.42;57.95
75668;BME280;64266;48.798;44.756;2022-12-11T11:21:01;102439.00;;;5.51;58.04
75668;BME280;64266;48.798;44.756;2022-12-11T11:23:28;102483.56;;;5.72;58.09
75668;BME280;64266;48.798;44.756;2022-12-11T11:25:57;102478.16;;;5.73;58.03
75668;BME280;64266;48.798;44.756;2022-12-11T11:28:32;102458.22;;;5.71;58.43
75668;BME280;64266;48.798;44.756;2022-12-11T11:31:09;102476.06;;;5.77;58.07
75668;BME280;64266;48.798;44.756;2022-12-11T11:33:51;102481.75;;;5.72;57.90
75668;BME280;64266;48.798;44.756;2022-12-11T11:36:22;102477.88;;;5.76;59.09
75668;BME280;64266;48.798;44.756;2022-12-11T11:39:28;102488.66;;;5.83;58.48
75668;BME280;64266;48.798;44.756;2022-12-11T11:42:19;102447.06;;;5.50;57.92
75668;BME280;64266;48.798;44.756;2022-12-11T11:45:01;102466.00;;;5.63;58.01
75668;BME280;64266;48.798;44.756;2022-12-11T11:47:39;102494.34;;;5.78;58.20
75668;BME280;64266;48.798;44.756;2022-12-11T11:50:14;102467.81;;;5.62;58.45
75668;BME280;64266;48.798;44.756;2022-12-11T11:52:57;102489.50;;;5.74;57.96
75668;BME280;64266;48.798;44.756;2022-12-11T11:58:17;102503.78;;;5.81;57.99
75668;BME280;64266;48.798;44.756;2022-12-11T12:00:49;102519.44;;;5.73;58.08
75668;BME280;64266;48.798;44.756;2022-12-11T12:03:18;102453.78;;;5.25;58.67
75668;BME280;64266;48.798;44.756;2022-12-11T12:05:52;102512.69;;;5.51;59.01
75668;BME280;64266;48.798;44.756;2022-12-11T12:13:40;102512.19;;;5.38;59.00
75668;BME280;64266;48.798;44.756;2022-12-11T12:21:51;102510.34;;;5.38;59.69
75668;BME280;64266;48.798;44.756;2022-12-11T12:24:48;102506.47;;;5.42;59.72
75668;BME280;64266;48.798;44.756;2022-12-11T12:27:28;102511.63;;;5.44;59.23
75668;BME280;64266;48.798;44.756;2022-12-11T12:30:08;102509.41;;;5.30;58.80
75668;BME280;64266;48.798;44.756;2022-12-11T12:32:46;102519.50;;;5.34;58.17
75668;BME280;64266;48.798;44.756;2022-12-11T12:35:33;102510.22;;;5.30;58.17
75668;BME280;64266;48.798;44.756;2022-12-11T12:38:15;102488.13;;;5.04;57.67
75668;BME280;64266;48.798;44.756;2022-12-11T12:48:21;102537.34;;;4.73;59.00
75668;BME280;64266;48.798;44.756;2022-12-11T12:50:49;102519.75;;;4.64;58.50
75668;BME280;64266;48.798;44.756;2022-12-11T12:53:23;102551.97;;;4.66;58.99
75668;BME280;64266;48.798;44.756;2022-12-11T12:55:50;102565.38;;;4.63;59.51
75668;BME280;64266;48.798;44.756;2022-12-11T13:06:42;102522.22;;;4.56;60.50
75668;BME280;64266;48.798;44.756;2022-12-11T13:09:21;102549.63;;;4.63;59.71
75668;BME280;64266;48.798;44.756;2022-12-11T13:11:49;102543.41;;;4.64;58.98
75668;BME280;64266;48.798;44.756;2022-12-11T13:16:47;102546.84;;;4.55;59.52
75668;BME280;64266;48.798;44.756;2022-12-11T13:35:28;102531.25;;;4.23;61.45
75668;BME280;64266;48.798;44.756;2022-12-11T13:38:31;102513.88;;;4.02;61.58
75668;BME280;64266;48.798;44.756;2022-12-11T13:40:55;102546.53;;;4.09;61.79
75668;BME280;64266;48.798;44.756;2022-12-11T13:43:26;102530.28;;;3.94;62.75
75668;BME280;64266;48.798;44.756;2022-12-11T13:45:55;102569.84;;;4.02;61.79
75668;BME280;64266;48.798;44.756;2022-12-11T13:48:30;102545.47;;;3.91;62.77
75668;BME280;64266;48.798;44.756;2022-12-11T13:50:58;102555.81;;;3.92;62.41
75668;BME280;64266;48.798;44.756;2022-12-11T13:53:25;102561.41;;;3.78;63.68
75668;BME280;64266;48.798;44.756;2022-12-11T13:56:02;102567.22;;;3.81;63.78
75668;BME280;64266;48.798;44.756;2022-12-11T13:58:29;102548.56;;;3.75;63.37
75668;BME280;64266;48.798;44.756;2022-12-11T14:01:21;102575.81;;;3.83;63.55
75668;BME280;64266;48.798;44.756;2022-12-11T14:04:05;102571.38;;;3.63;64.26
75668;BME280;64266;48.798;44.756;2022-12-11T14:06:33;102567.63;;;3.56;64.10
75668;BME280;64266;48.798;44.756;2022-12-11T14:09:02;102537.25;;;3.22;64.71
75668;BME280;64266;48.798;44.756;2022-12-11T14:11:40;102572.53;;;3.29;65.42
75668;BME280;64266;48.798;44.756;2022-12-11T14:14:59;102561.31;;;3.27;65.63
75668;BME280;64266;48.798;44.756;2022-12-11T14:17:01;102538.38;;;3.08;64.94
75668;BME280;64266;48.798;44.756;2022-12-11T14:19:27;102531.81;;;3.14;65.79
75668;BME280;64266;48.798;44.756;2022-12-11T14:21:57;102574.56;;;3.25;65.40
75668;BME280;64266;48.798;44.756;2022-12-11T14:24:24;102531.09;;;3.12;66.27
75668;BME280;64266;48.798;44.756;2022-12-11T14:26:52;102534.72;;;3.00;66.23
75668;BME280;64266;48.798;44.756;2022-12-11T14:29:29;102561.97;;;3.08;66.30
75668;BME280;64266;48.798;44.756;2022-12-11T14:32:00;102551.13;;;3.13;65.98
75668;BME280;64266;48.798;44.756;2022-12-11T14:34:36;102512.25;;;2.86;66.36
75668;BME280;64266;48.798;44.756;2022-12-11T14:37:05;102490.63;;;2.73;66.73
75668;BME280;64266;48.798;44.756;2022-12-11T14:39:36;102532.50;;;2.95;66.89